Tamsen — ZCTG9 — position and weather

sailwx.info

Track history (hours):
 
Tides and Currents Weather Stations Pressure Air Temp Water Temp Dewpoint Dewpoint Depression Visibility Wind Speed Wind Dir Waves Ship Positions

Tamsen

Last reported at 2017-Nov-26 23:05 UTC. Time now 2017-Dec-15 23:16 UTC.
Position N 16°56' W 062°34'.
Warning: this ship's position is 19 days out of date.

Length 52 m.

Type: Pleasure craft. MMSI: 318861424.

Date/timePositionNaut miles runAvg speedWind from/ knotsBaromVisibWave heightAir tempDewpointWater temp
2017-Nov-26 23:05N 16°56' W 062°34'1 9.5
2017-Nov-26 22:59N 16°56' W 062°33'5 9.8
2017-Nov-26 22:30N 16°55' W 062°28'5 9.3
2017-Nov-26 22:00N 16°54' W 062°23'4 8.1
2017-Nov-26 21:30N 16°54' W 062°19'4 9.0
2017-Nov-26 21:00N 16°55' W 062°15'5 9.2
2017-Nov-26 20:30N 16°57' W 062°10'5 9.4
2017-Nov-26 20:00N 16°58' W 062°05'4 8.3
2017-Nov-26 19:30N 16°59' W 062°01'1 1.0
2017-Nov-26 19:00N 16°59' W 062°01'3 5.7
2017-Nov-26 18:30N 16°59' W 061°59'4 8.1
2017-Nov-26 18:00N 16°60' W 061°54'4 8.6
2017-Nov-26 17:30N 16°59' W 061°50'4 7.2
2017-Nov-26 17:00N 17°01' W 061°46'0 0.1
2017-Nov-26 16:29N 17°01' W 061°46'0 0.0
2017-Nov-26 15:59N 17°01' W 061°46'0 0.0
2017-Nov-26 15:29N 17°01' W 061°46'0 0.0
2017-Nov-26 14:59N 17°01' W 061°46'0 0.0
2017-Nov-26 14:29N 17°01' W 061°46'0 0.0
2017-Nov-26 13:59N 17°01' W 061°46'0 0.0
2017-Nov-26 13:29N 17°01' W 061°46'0 0.0
2017-Nov-26 12:59N 17°01' W 061°46'0 0.0
2017-Nov-26 12:29N 17°01' W 061°46'0 0.0
2017-Nov-26 11:59N 17°01' W 061°46'0 0.0
2017-Nov-26 11:29N 17°01' W 061°46'0 0.0
2017-Nov-26 10:59N 17°01' W 061°46'0 0.0
2017-Nov-26 10:29N 17°01' W 061°46'0 0.0
2017-Nov-26 09:59N 17°01' W 061°46'0 0.0
2017-Nov-26 09:29N 17°01' W 061°46'0 0.0
2017-Nov-26 08:59N 17°01' W 061°46'0 0.0
2017-Nov-26 08:29N 17°01' W 061°46'0 0.0
2017-Nov-26 07:59N 17°01' W 061°46'0 0.0
2017-Nov-26 07:29N 17°01' W 061°46'0 0.0
2017-Nov-26 06:59N 17°01' W 061°46'0 0.0
2017-Nov-26 06:29N 17°01' W 061°46'0 0.0
2017-Nov-26 05:59N 17°01' W 061°46'0 0.0
2017-Nov-26 05:29N 17°01' W 061°46'0 0.0
2017-Nov-26 04:59N 17°01' W 061°46'0 0.0
2017-Nov-26 04:29N 17°01' W 061°46'0 0.0
2017-Nov-26 03:59N 17°01' W 061°46'0 0.0
2017-Nov-26 03:29N 17°01' W 061°46'0 0.0
2017-Nov-26 02:59N 17°01' W 061°46'0 0.0
2017-Nov-26 02:29N 17°01' W 061°46'0 0.0
2017-Nov-26 01:59N 17°01' W 061°46'0 0.0
2017-Nov-26 01:29N 17°01' W 061°46'0 0.0
2017-Nov-26 00:59N 17°01' W 061°46'0 0.0
2017-Nov-26 00:29N 17°01' W 061°46'0 0.0
2017-Nov-25 23:59N 17°01' W 061°46'0 0.0
2017-Nov-25 23:29N 17°01' W 061°46'0 0.0
2017-Nov-25 22:59N 17°01' W 061°46'0 0.0
2017-Nov-25 22:29N 17°01' W 061°46'0 0.0
2017-Nov-25 21:59N 17°01' W 061°46'0 0.0
2017-Nov-25 21:29N 17°01' W 061°46'0 0.0
2017-Nov-25 20:58N 17°01' W 061°46'0 0.0
2017-Nov-25 20:28N 17°01' W 061°46'0 0.0
2017-Nov-25 19:58N 17°01' W 061°46'0 0.0
2017-Nov-25 19:28N 17°01' W 061°46'0 0.0
2017-Nov-25 18:58N 17°01' W 061°46'0 0.0
2017-Nov-25 18:28N 17°01' W 061°46'0 0.0
2017-Nov-25 17:58N 17°01' W 061°46'0 0.0
2017-Nov-25 17:28N 17°01' W 061°46'0 0.0
2017-Nov-25 16:55N 17°01' W 061°46'0 0.0
2017-Nov-25 16:28N 17°01' W 061°46'0 0.0
2017-Nov-25 15:58N 17°01' W 061°46'0 0.0
2017-Nov-25 15:28N 17°01' W 061°46'0 0.0
2017-Nov-25 14:58N 17°01' W 061°46'0 0.0
2017-Nov-25 14:28N 17°01' W 061°46'0 0.0
2017-Nov-25 13:58N 17°01' W 061°46'0 0.0
2017-Nov-25 13:28N 17°01' W 061°46'0 0.0
2017-Nov-25 12:58N 17°01' W 061°46'0 0.0
2017-Nov-25 12:28N 17°01' W 061°46'0 0.0
2017-Nov-25 11:58N 17°01' W 061°46'0 0.0
2017-Nov-25 11:28N 17°01' W 061°46'0 0.0
2017-Nov-25 10:58N 17°01' W 061°46'0 0.0
2017-Nov-25 10:28N 17°01' W 061°46'0 0.0
2017-Nov-25 09:58N 17°01' W 061°46'0 0.0
2017-Nov-25 09:28N 17°01' W 061°46'0 0.0
2017-Nov-25 08:58N 17°01' W 061°46'0 0.0
2017-Nov-25 08:28N 17°01' W 061°46'0 0.0
2017-Nov-25 07:58N 17°01' W 061°46'0 0.0
2017-Nov-25 07:28N 17°01' W 061°46'0 0.0
2017-Nov-25 06:58N 17°01' W 061°46'0 0.0
2017-Nov-25 06:28N 17°01' W 061°46'0 0.0
2017-Nov-25 05:58N 17°01' W 061°46'0 0.0
2017-Nov-25 05:28N 17°01' W 061°46'0 0.0
2017-Nov-25 04:58N 17°01' W 061°46'0 0.0
2017-Nov-25 04:28N 17°01' W 061°46'0 0.0
2017-Nov-25 03:58N 17°01' W 061°46'0 0.0
2017-Nov-25 03:28N 17°01' W 061°46'0 0.0
2017-Nov-25 02:58N 17°01' W 061°46'0 0.0
2017-Nov-25 02:28N 17°01' W 061°46'0 0.0
2017-Nov-25 01:58N 17°01' W 061°46'0 0.0
2017-Nov-25 01:28N 17°01' W 061°46'0 0.0
2017-Nov-25 00:58N 17°01' W 061°46'0 0.0
2017-Nov-25 00:28N 17°01' W 061°46'0 0.0
2017-Nov-24 23:58N 17°01' W 061°46'0 0.0
2017-Nov-24 23:28N 17°01' W 061°46'0 0.0
2017-Nov-24 22:58N 17°01' W 061°46'0 0.0
2017-Nov-24 22:28N 17°01' W 061°46'0 0.0
2017-Nov-24 21:58N 17°01' W 061°46'0 0.0
2017-Nov-24 21:28N 17°01' W 061°46'0 0.0
2017-Nov-24 20:58N 17°01' W 061°46'0 0.0
2017-Nov-24 20:28N 17°01' W 061°46'0 0.0
2017-Nov-24 19:58N 17°01' W 061°46'0 0.0
2017-Nov-24 19:28N 17°01' W 061°46'0 0.0
2017-Nov-24 18:58N 17°01' W 061°46'0 0.0
2017-Nov-24 18:28N 17°01' W 061°46'0 0.0
2017-Nov-24 17:58N 17°01' W 061°46'0 0.0
2017-Nov-24 17:28N 17°01' W 061°46'0 0.0
2017-Nov-24 16:58N 17°01' W 061°46'0 0.0
2017-Nov-24 16:28N 17°01' W 061°46'0 0.0
2017-Nov-24 15:58N 17°01' W 061°46'0 0.0
2017-Nov-24 15:28N 17°01' W 061°46'0 0.0
2017-Nov-24 14:58N 17°01' W 061°46'0 0.0
2017-Nov-24 14:28N 17°01' W 061°46'0 0.0
2017-Nov-24 13:58N 17°01' W 061°46'0 0.0
2017-Nov-24 13:28N 17°01' W 061°46'0 0.0
2017-Nov-24 12:58N 17°01' W 061°46'0 0.0
2017-Nov-24 12:28N 17°01' W 061°46'0 0.0
2017-Nov-24 11:58N 17°01' W 061°46'0 0.0
2017-Nov-24 11:28N 17°01' W 061°46'0 0.0
2017-Nov-24 10:58N 17°01' W 061°46'0 0.0
2017-Nov-24 10:28N 17°01' W 061°46'0 0.0
2017-Nov-24 09:58N 17°01' W 061°46'0 0.0
2017-Nov-24 09:31N 17°01' W 061°46'0 0.0
2017-Nov-24 09:01N 17°01' W 061°46'0 0.0
2017-Nov-24 08:30N 17°01' W 061°46'0 0.0
2017-Nov-24 08:00N 17°01' W 061°46'0 0.0
2017-Nov-24 07:30N 17°01' W 061°46'0 0.0
2017-Nov-24 07:00N 17°01' W 061°46'0 0.0
2017-Nov-24 06:30N 17°01' W 061°46'0 0.0
2017-Nov-24 06:00N 17°01' W 061°46'0 0.0
2017-Nov-24 05:30N 17°01' W 061°46'0 0.0
2017-Nov-24 05:00N 17°01' W 061°46'0 0.0
2017-Nov-24 04:30N 17°01' W 061°46'0 0.0
2017-Nov-24 04:00N 17°01' W 061°46'0 0.0
2017-Nov-24 03:30N 17°01' W 061°46'0 0.0
2017-Nov-24 03:00N 17°01' W 061°46'0 0.0
2017-Nov-24 02:30N 17°01' W 061°46'0 0.0
2017-Nov-24 02:00N 17°01' W 061°46'0 0.0
2017-Nov-24 01:30N 17°01' W 061°46'0 0.0
2017-Nov-24 01:00N 17°01' W 061°46'0 0.0
2017-Nov-24 00:30N 17°01' W 061°46'0 0.0
2017-Nov-24 00:00N 17°01' W 061°46'0 0.0
2017-Nov-23 23:30N 17°01' W 061°46'0 0.0
2017-Nov-23 23:00N 17°01' W 061°46'0 0.0
2017-Nov-23 22:30N 17°01' W 061°46'0 0.0
2017-Nov-23 22:00N 17°01' W 061°46'0 0.0
2017-Nov-23 21:30N 17°01' W 061°46'0 0.0
2017-Nov-23 21:00N 17°01' W 061°46'0 0.0
2017-Nov-23 20:30N 17°01' W 061°46'0 0.0
2017-Nov-23 20:00N 17°01' W 061°46'0 0.0
2017-Nov-23 19:30N 17°01' W 061°46'0 0.0
2017-Nov-23 19:00N 17°01' W 061°46'0 0.0
2017-Nov-23 18:30N 17°01' W 061°46'0 0.0
2017-Nov-23 18:00N 17°01' W 061°46'0 0.0
2017-Nov-23 17:30N 17°01' W 061°46'0 0.0
2017-Nov-23 17:00N 17°01' W 061°46'0 0.0
2017-Nov-23 16:30N 17°01' W 061°46'0 0.0
2017-Nov-23 16:00N 17°01' W 061°46'0 0.0
2017-Nov-23 15:30N 17°01' W 061°46'0 0.0
2017-Nov-23 15:00N 17°01' W 061°46'0 0.0
2017-Nov-23 14:24N 17°01' W 061°46'0 0.0
2017-Nov-23 14:00N 17°01' W 061°46'0 0.0
2017-Nov-23 13:30N 17°01' W 061°46'0 0.0
2017-Nov-23 13:00N 17°01' W 061°46'0 0.0
2017-Nov-23 12:30N 17°01' W 061°46'0 0.0
2017-Nov-23 12:00N 17°01' W 061°46'0 0.0
2017-Nov-23 11:30N 17°01' W 061°46'0 0.0
2017-Nov-23 11:00N 17°01' W 061°46'0 0.0
2017-Nov-23 10:30N 17°01' W 061°46'0 0.0
2017-Nov-23 10:00N 17°01' W 061°46'0 0.0
2017-Nov-23 09:30N 17°01' W 061°46'0 0.0
2017-Nov-23 09:00N 17°01' W 061°46'0 0.0
2017-Nov-23 08:30N 17°01' W 061°46'0 0.0
2017-Nov-23 08:00N 17°01' W 061°46'0 0.0
2017-Nov-23 07:30N 17°01' W 061°46'0 0.0
2017-Nov-23 07:00N 17°01' W 061°46'0 0.0
2017-Nov-23 06:30N 17°01' W 061°46'0 0.0
2017-Nov-23 06:00N 17°01' W 061°46'0 0.0
2017-Nov-23 05:30N 17°01' W 061°46'0 0.0
2017-Nov-23 05:00N 17°01' W 061°46'0 0.0
2017-Nov-23 04:30N 17°01' W 061°46'0 0.0
2017-Nov-23 04:00N 17°01' W 061°46'0 0.0
2017-Nov-23 03:30N 17°01' W 061°46'0 0.0
2017-Nov-23 03:00N 17°01' W 061°46'0 0.0
2017-Nov-23 02:30N 17°01' W 061°46'0 0.0
2017-Nov-23 02:00N 17°01' W 061°46'0 0.0
2017-Nov-23 01:30N 17°01' W 061°46'0 0.0
2017-Nov-23 01:00N 17°01' W 061°46'0 0.0
2017-Nov-23 00:30N 17°01' W 061°46'0 0.0
2017-Nov-23 00:00N 17°01' W 061°46'0 0.0
2017-Nov-22 23:30N 17°01' W 061°46'0 0.0
2017-Nov-22 23:00N 17°01' W 061°46'0 0.0
2017-Nov-22 22:30N 17°01' W 061°46'0 0.0
2017-Nov-22 22:00N 17°01' W 061°46'0 0.0
2017-Nov-22 21:30N 17°01' W 061°46'0 0.0
2017-Nov-22 21:00N 17°01' W 061°46'0 0.0
2017-Nov-22 20:29N 17°01' W 061°46'0 0.0
2017-Nov-22 19:59N 17°01' W 061°46'0 0.0
2017-Nov-22 19:29N 17°01' W 061°46'  
2017-Nov-20 00:28N 17°01' W 061°46'0 0.0
2017-Nov-19 23:58N 17°01' W 061°46'0 0.0
2017-Nov-19 23:28N 17°01' W 061°46'0 0.0
2017-Nov-19 22:58N 17°01' W 061°46'0 0.0
2017-Nov-19 22:28N 17°01' W 061°46'0 0.0
2017-Nov-19 22:01N 17°01' W 061°46'0 0.0
2017-Nov-19 21:31N 17°01' W 061°46'0 0.0
2017-Nov-19 21:01N 17°01' W 061°46'0 0.0
2017-Nov-19 20:31N 17°01' W 061°46'0 0.0
2017-Nov-19 20:00N 17°01' W 061°46'0 0.0
2017-Nov-19 19:30N 17°01' W 061°46'0 0.0
2017-Nov-19 19:00N 17°01' W 061°46'0 0.0
2017-Nov-19 18:30N 17°01' W 061°46'0 0.0
2017-Nov-19 18:00N 17°01' W 061°46'0 0.0
2017-Nov-19 17:30N 17°01' W 061°46'0 0.0
2017-Nov-19 17:00N 17°01' W 061°46'0 0.0
2017-Nov-19 16:30N 17°01' W 061°46'0 0.0
2017-Nov-19 16:00N 17°01' W 061°46'0 0.0
2017-Nov-19 15:30N 17°01' W 061°46'0 0.0
2017-Nov-19 15:00N 17°01' W 061°46'0 0.0
2017-Nov-19 14:30N 17°01' W 061°46'0 0.0
2017-Nov-19 14:00N 17°01' W 061°46'0 0.0
2017-Nov-19 13:30N 17°01' W 061°46'0 0.1
2017-Nov-19 13:01N 17°01' W 061°46'2 3.6
2017-Nov-19 12:30N 16°59' W 061°47'3 6.0
2017-Nov-19 12:00N 16°59' W 061°44'4 8.4
2017-Nov-19 11:30N 16°58' W 061°40'4 8.0
2017-Nov-19 11:00N 16°58' W 061°36'4 7.8
2017-Nov-19 10:30N 16°60' W 061°32'4 8.9
2017-Nov-19 10:00N 17°01' W 061°28'4 8.8
2017-Nov-19 09:30N 17°02' W 061°23'4 8.6
2017-Nov-19 09:00N 17°03' W 061°19'5 9.1
2017-Nov-19 08:30N 17°04' W 061°14'510.3
2017-Nov-19 08:00N 17°04' W 061°09'510.3
2017-Nov-19 07:30N 17°05' W 061°03'510.2
2017-Nov-19 06:59N 17°06' W 060°58'  
Track history (hours):
 
Tides and Currents Weather Stations Pressure Air Temp Water Temp Dewpoint Dewpoint Depression Visibility Wind Speed Wind Dir Waves Ship Positions

Tamsen

Last reported at 2017-Nov-26 23:05 UTC. Time now 2017-Dec-15 23:16 UTC.
Position N 16°56' W 062°34'.
Warning: this ship's position is 19 days out of date.

Length 52 m.

Type: Pleasure craft. MMSI: 318861424.

Date/timePositionNaut miles runAvg speedWind from/ knotsBaromVisibWave heightAir tempDewpointWater temp
2017-Nov-26 23:05N 16°56' W 062°34'1 9.5
2017-Nov-26 22:59N 16°56' W 062°33'5 9.8
2017-Nov-26 22:30N 16°55' W 062°28'5 9.3
2017-Nov-26 22:00N 16°54' W 062°23'4 8.1
2017-Nov-26 21:30N 16°54' W 062°19'4 9.0
2017-Nov-26 21:00N 16°55' W 062°15'5 9.2
2017-Nov-26 20:30N 16°57' W 062°10'5 9.4
2017-Nov-26 20:00N 16°58' W 062°05'4 8.3
2017-Nov-26 19:30N 16°59' W 062°01'1 1.0
2017-Nov-26 19:00N 16°59' W 062°01'3 5.7
2017-Nov-26 18:30N 16°59' W 061°59'4 8.1
2017-Nov-26 18:00N 16°60' W 061°54'4 8.6
2017-Nov-26 17:30N 16°59' W 061°50'4 7.2
2017-Nov-26 17:00N 17°01' W 061°46'0 0.1
2017-Nov-26 16:29N 17°01' W 061°46'0 0.0
2017-Nov-26 15:59N 17°01' W 061°46'0 0.0
2017-Nov-26 15:29N 17°01' W 061°46'0 0.0
2017-Nov-26 14:59N 17°01' W 061°46'0 0.0
2017-Nov-26 14:29N 17°01' W 061°46'0 0.0
2017-Nov-26 13:59N 17°01' W 061°46'0 0.0
2017-Nov-26 13:29N 17°01' W 061°46'0 0.0
2017-Nov-26 12:59N 17°01' W 061°46'0 0.0
2017-Nov-26 12:29N 17°01' W 061°46'0 0.0
2017-Nov-26 11:59N 17°01' W 061°46'0 0.0
2017-Nov-26 11:29N 17°01' W 061°46'0 0.0
2017-Nov-26 10:59N 17°01' W 061°46'0 0.0
2017-Nov-26 10:29N 17°01' W 061°46'0 0.0
2017-Nov-26 09:59N 17°01' W 061°46'0 0.0
2017-Nov-26 09:29N 17°01' W 061°46'0 0.0
2017-Nov-26 08:59N 17°01' W 061°46'0 0.0
2017-Nov-26 08:29N 17°01' W 061°46'0 0.0
2017-Nov-26 07:59N 17°01' W 061°46'0 0.0
2017-Nov-26 07:29N 17°01' W 061°46'0 0.0
2017-Nov-26 06:59N 17°01' W 061°46'0 0.0
2017-Nov-26 06:29N 17°01' W 061°46'0 0.0
2017-Nov-26 05:59N 17°01' W 061°46'0 0.0
2017-Nov-26 05:29N 17°01' W 061°46'0 0.0
2017-Nov-26 04:59N 17°01' W 061°46'0 0.0
2017-Nov-26 04:29N 17°01' W 061°46'0 0.0
2017-Nov-26 03:59N 17°01' W 061°46'0 0.0
2017-Nov-26 03:29N 17°01' W 061°46'0 0.0
2017-Nov-26 02:59N 17°01' W 061°46'0 0.0
2017-Nov-26 02:29N 17°01' W 061°46'0 0.0
2017-Nov-26 01:59N 17°01' W 061°46'0 0.0
2017-Nov-26 01:29N 17°01' W 061°46'0 0.0
2017-Nov-26 00:59N 17°01' W 061°46'0 0.0
2017-Nov-26 00:29N 17°01' W 061°46'0 0.0
2017-Nov-25 23:59N 17°01' W 061°46'0 0.0
2017-Nov-25 23:29N 17°01' W 061°46'0 0.0
2017-Nov-25 22:59N 17°01' W 061°46'0 0.0
2017-Nov-25 22:29N 17°01' W 061°46'0 0.0
2017-Nov-25 21:59N 17°01' W 061°46'0 0.0
2017-Nov-25 21:29N 17°01' W 061°46'0 0.0
2017-Nov-25 20:58N 17°01' W 061°46'0 0.0
2017-Nov-25 20:28N 17°01' W 061°46'0 0.0
2017-Nov-25 19:58N 17°01' W 061°46'0 0.0
2017-Nov-25 19:28N 17°01' W 061°46'0 0.0
2017-Nov-25 18:58N 17°01' W 061°46'0 0.0
2017-Nov-25 18:28N 17°01' W 061°46'0 0.0
2017-Nov-25 17:58N 17°01' W 061°46'0 0.0
2017-Nov-25 17:28N 17°01' W 061°46'0 0.0
2017-Nov-25 16:55N 17°01' W 061°46'0 0.0
2017-Nov-25 16:28N 17°01' W 061°46'0 0.0
2017-Nov-25 15:58N 17°01' W 061°46'0 0.0
2017-Nov-25 15:28N 17°01' W 061°46'0 0.0
2017-Nov-25 14:58N 17°01' W 061°46'0 0.0
2017-Nov-25 14:28N 17°01' W 061°46'0 0.0
2017-Nov-25 13:58N 17°01' W 061°46'0 0.0
2017-Nov-25 13:28N 17°01' W 061°46'0 0.0
2017-Nov-25 12:58N 17°01' W 061°46'0 0.0
2017-Nov-25 12:28N 17°01' W 061°46'0 0.0
2017-Nov-25 11:58N 17°01' W 061°46'0 0.0
2017-Nov-25 11:28N 17°01' W 061°46'0 0.0
2017-Nov-25 10:58N 17°01' W 061°46'0 0.0
2017-Nov-25 10:28N 17°01' W 061°46'0 0.0
2017-Nov-25 09:58N 17°01' W 061°46'0 0.0
2017-Nov-25 09:28N 17°01' W 061°46'0 0.0
2017-Nov-25 08:58N 17°01' W 061°46'0 0.0
2017-Nov-25 08:28N 17°01' W 061°46'0 0.0
2017-Nov-25 07:58N 17°01' W 061°46'0 0.0
2017-Nov-25 07:28N 17°01' W 061°46'0 0.0
2017-Nov-25 06:58N 17°01' W 061°46'0 0.0
2017-Nov-25 06:28N 17°01' W 061°46'0 0.0
2017-Nov-25 05:58N 17°01' W 061°46'0 0.0
2017-Nov-25 05:28N 17°01' W 061°46'0 0.0
2017-Nov-25 04:58N 17°01' W 061°46'0 0.0
2017-Nov-25 04:28N 17°01' W 061°46'0 0.0
2017-Nov-25 03:58N 17°01' W 061°46'0 0.0
2017-Nov-25 03:28N 17°01' W 061°46'0 0.0
2017-Nov-25 02:58N 17°01' W 061°46'0 0.0
2017-Nov-25 02:28N 17°01' W 061°46'0 0.0
2017-Nov-25 01:58N 17°01' W 061°46'0 0.0
2017-Nov-25 01:28N 17°01' W 061°46'0 0.0
2017-Nov-25 00:58N 17°01' W 061°46'0 0.0
2017-Nov-25 00:28N 17°01' W 061°46'0 0.0
2017-Nov-24 23:58N 17°01' W 061°46'0 0.0
2017-Nov-24 23:28N 17°01' W 061°46'0 0.0
2017-Nov-24 22:58N 17°01' W 061°46'0 0.0
2017-Nov-24 22:28N 17°01' W 061°46'0 0.0
2017-Nov-24 21:58N 17°01' W 061°46'0 0.0
2017-Nov-24 21:28N 17°01' W 061°46'0 0.0
2017-Nov-24 20:58N 17°01' W 061°46'0 0.0
2017-Nov-24 20:28N 17°01' W 061°46'0 0.0
2017-Nov-24 19:58N 17°01' W 061°46'0 0.0
2017-Nov-24 19:28N 17°01' W 061°46'0 0.0
2017-Nov-24 18:58N 17°01' W 061°46'0 0.0
2017-Nov-24 18:28N 17°01' W 061°46'0 0.0
2017-Nov-24 17:58N 17°01' W 061°46'0 0.0
2017-Nov-24 17:28N 17°01' W 061°46'0 0.0
2017-Nov-24 16:58N 17°01' W 061°46'0 0.0
2017-Nov-24 16:28N 17°01' W 061°46'0 0.0
2017-Nov-24 15:58N 17°01' W 061°46'0 0.0
2017-Nov-24 15:28N 17°01' W 061°46'0 0.0
2017-Nov-24 14:58N 17°01' W 061°46'0 0.0
2017-Nov-24 14:28N 17°01' W 061°46'0 0.0
2017-Nov-24 13:58N 17°01' W 061°46'0 0.0
2017-Nov-24 13:28N 17°01' W 061°46'0 0.0
2017-Nov-24 12:58N 17°01' W 061°46'0 0.0
2017-Nov-24 12:28N 17°01' W 061°46'0 0.0
2017-Nov-24 11:58N 17°01' W 061°46'0 0.0
2017-Nov-24 11:28N 17°01' W 061°46'0 0.0
2017-Nov-24 10:58N 17°01' W 061°46'0 0.0
2017-Nov-24 10:28N 17°01' W 061°46'0 0.0
2017-Nov-24 09:58N 17°01' W 061°46'0 0.0
2017-Nov-24 09:31N 17°01' W 061°46'0 0.0
2017-Nov-24 09:01N 17°01' W 061°46'0 0.0
2017-Nov-24 08:30N 17°01' W 061°46'0 0.0
2017-Nov-24 08:00N 17°01' W 061°46'0 0.0
2017-Nov-24 07:30N 17°01' W 061°46'0 0.0
2017-Nov-24 07:00N 17°01' W 061°46'0 0.0
2017-Nov-24 06:30N 17°01' W 061°46'0 0.0
2017-Nov-24 06:00N 17°01' W 061°46'0 0.0
2017-Nov-24 05:30N 17°01' W 061°46'0 0.0
2017-Nov-24 05:00N 17°01' W 061°46'0 0.0
2017-Nov-24 04:30N 17°01' W 061°46'0 0.0
2017-Nov-24 04:00N 17°01' W 061°46'0 0.0
2017-Nov-24 03:30N 17°01' W 061°46'0 0.0
2017-Nov-24 03:00N 17°01' W 061°46'0 0.0
2017-Nov-24 02:30N 17°01' W 061°46'0 0.0
2017-Nov-24 02:00N 17°01' W 061°46'0 0.0
2017-Nov-24 01:30N 17°01' W 061°46'0 0.0
2017-Nov-24 01:00N 17°01' W 061°46'0 0.0
2017-Nov-24 00:30N 17°01' W 061°46'0 0.0
2017-Nov-24 00:00N 17°01' W 061°46'0 0.0
2017-Nov-23 23:30N 17°01' W 061°46'0 0.0
2017-Nov-23 23:00N 17°01' W 061°46'0 0.0
2017-Nov-23 22:30N 17°01' W 061°46'0 0.0
2017-Nov-23 22:00N 17°01' W 061°46'0 0.0
2017-Nov-23 21:30N 17°01' W 061°46'0 0.0
2017-Nov-23 21:00N 17°01' W 061°46'0 0.0
2017-Nov-23 20:30N 17°01' W 061°46'0 0.0
2017-Nov-23 20:00N 17°01' W 061°46'0 0.0
2017-Nov-23 19:30N 17°01' W 061°46'0 0.0
2017-Nov-23 19:00N 17°01' W 061°46'0 0.0
2017-Nov-23 18:30N 17°01' W 061°46'0 0.0
2017-Nov-23 18:00N 17°01' W 061°46'0 0.0
2017-Nov-23 17:30N 17°01' W 061°46'0 0.0
2017-Nov-23 17:00N 17°01' W 061°46'0 0.0
2017-Nov-23 16:30N 17°01' W 061°46'0 0.0
2017-Nov-23 16:00N 17°01' W 061°46'0 0.0
2017-Nov-23 15:30N 17°01' W 061°46'0 0.0
2017-Nov-23 15:00N 17°01' W 061°46'0 0.0
2017-Nov-23 14:24N 17°01' W 061°46'0 0.0
2017-Nov-23 14:00N 17°01' W 061°46'0 0.0
2017-Nov-23 13:30N 17°01' W 061°46'0 0.0
2017-Nov-23 13:00N 17°01' W 061°46'0 0.0
2017-Nov-23 12:30N 17°01' W 061°46'0 0.0
2017-Nov-23 12:00N 17°01' W 061°46'0 0.0
2017-Nov-23 11:30N 17°01' W 061°46'0 0.0
2017-Nov-23 11:00N 17°01' W 061°46'0 0.0
2017-Nov-23 10:30N 17°01' W 061°46'0 0.0
2017-Nov-23 10:00N 17°01' W 061°46'0 0.0
2017-Nov-23 09:30N 17°01' W 061°46'0 0.0
2017-Nov-23 09:00N 17°01' W 061°46'0 0.0
2017-Nov-23 08:30N 17°01' W 061°46'0 0.0
2017-Nov-23 08:00N 17°01' W 061°46'0 0.0
2017-Nov-23 07:30N 17°01' W 061°46'0 0.0
2017-Nov-23 07:00N 17°01' W 061°46'0 0.0
2017-Nov-23 06:30N 17°01' W 061°46'0 0.0
2017-Nov-23 06:00N 17°01' W 061°46'0 0.0
2017-Nov-23 05:30N 17°01' W 061°46'0 0.0
2017-Nov-23 05:00N 17°01' W 061°46'0 0.0
2017-Nov-23 04:30N 17°01' W 061°46'0 0.0
2017-Nov-23 04:00N 17°01' W 061°46'0 0.0
2017-Nov-23 03:30N 17°01' W 061°46'0 0.0
2017-Nov-23 03:00N 17°01' W 061°46'0 0.0
2017-Nov-23 02:30N 17°01' W 061°46'0 0.0
2017-Nov-23 02:00N 17°01' W 061°46'0 0.0
2017-Nov-23 01:30N 17°01' W 061°46'0 0.0
2017-Nov-23 01:00N 17°01' W 061°46'0 0.0
2017-Nov-23 00:30N 17°01' W 061°46'0 0.0
2017-Nov-23 00:00N 17°01' W 061°46'0 0.0
2017-Nov-22 23:30N 17°01' W 061°46'0 0.0
2017-Nov-22 23:00N 17°01' W 061°46'0 0.0
2017-Nov-22 22:30N 17°01' W 061°46'0 0.0
2017-Nov-22 22:00N 17°01' W 061°46'0 0.0
2017-Nov-22 21:30N 17°01' W 061°46'0 0.0
2017-Nov-22 21:00N 17°01' W 061°46'0 0.0
2017-Nov-22 20:29N 17°01' W 061°46'0 0.0
2017-Nov-22 19:59N 17°01' W 061°46'0 0.0
2017-Nov-22 19:29N 17°01' W 061°46'  
2017-Nov-20 00:28N 17°01' W 061°46'0 0.0
2017-Nov-19 23:58N 17°01' W 061°46'0 0.0
2017-Nov-19 23:28N 17°01' W 061°46'0 0.0
2017-Nov-19 22:58N 17°01' W 061°46'0 0.0
2017-Nov-19 22:28N 17°01' W 061°46'0 0.0
2017-Nov-19 22:01N 17°01' W 061°46'0 0.0
2017-Nov-19 21:31N 17°01' W 061°46'0 0.0
2017-Nov-19 21:01N 17°01' W 061°46'0 0.0
2017-Nov-19 20:31N 17°01' W 061°46'0 0.0
2017-Nov-19 20:00N 17°01' W 061°46'0 0.0
2017-Nov-19 19:30N 17°01' W 061°46'0 0.0
2017-Nov-19 19:00N 17°01' W 061°46'0 0.0
2017-Nov-19 18:30N 17°01' W 061°46'0 0.0
2017-Nov-19 18:00N 17°01' W 061°46'0 0.0
2017-Nov-19 17:30N 17°01' W 061°46'0 0.0
2017-Nov-19 17:00N 17°01' W 061°46'0 0.0
2017-Nov-19 16:30N 17°01' W 061°46'0 0.0
2017-Nov-19 16:00N 17°01' W 061°46'0 0.0
2017-Nov-19 15:30N 17°01' W 061°46'0 0.0
2017-Nov-19 15:00N 17°01' W 061°46'0 0.0
2017-Nov-19 14:30N 17°01' W 061°46'0 0.0
2017-Nov-19 14:00N 17°01' W 061°46'0 0.0
2017-Nov-19 13:30N 17°01' W 061°46'0 0.1
2017-Nov-19 13:01N 17°01' W 061°46'2 3.6
2017-Nov-19 12:30N 16°59' W 061°47'3 6.0
2017-Nov-19 12:00N 16°59' W 061°44'4 8.4
2017-Nov-19 11:30N 16°58' W 061°40'4 8.0
2017-Nov-19 11:00N 16°58' W 061°36'4 7.8
2017-Nov-19 10:30N 16°60' W 061°32'4 8.9
2017-Nov-19 10:00N 17°01' W 061°28'4 8.8
2017-Nov-19 09:30N 17°02' W 061°23'4 8.6
2017-Nov-19 09:00N 17°03' W 061°19'5 9.1
2017-Nov-19 08:30N 17°04' W 061°14'510.3
2017-Nov-19 08:00N 17°04' W 061°09'510.3
2017-Nov-19 07:30N 17°05' W 061°03'510.2
2017-Nov-19 06:59N 17°06' W 060°58'  

Dump ship's entire track history